Time;durP1;ratioP1;P1;durP2;ratioP2;P2;SDS_P1;SDS_P2;PMS_P1;PMS_P2;Temp;Humidity;BMP_temperature;BMP_pressure;BME280_temperature;BME280_humidity;BME280_pressure;Samples;Min_cycle;Max_cycle;Signal;HPM_P1;HPM_P2
2023/10/07 00:00:32;;;;;;;;;;;;;;;19.57;56.39;101953.91;5037046;28;19909;-48
2023/10/07 00:02:59;;;;;;;;;;;;;;;19.57;56.58;101975.47;5036395;28;19931;-48
2023/10/07 00:05:35;;;;;;;;;;;;;;;19.56;56.75;101961.16;5035887;28;19916;-47
2023/10/07 00:08:03;;;;;;;;;;;;;;;19.57;56.54;101967.38;5038885;28;20360;-47
2023/10/07 00:10:29;;;;;;;;;;;;;;;19.56;56.55;101971.94;5040098;28;19940;-48
2023/10/07 00:12:57;;;;;;;;;;;;;;;19.55;56.75;101970.25;5039870;28;19913;-45
2023/10/07 00:15:24;;;;;;;;;;;;;;;19.55;56.53;101972.94;5039322;28;19909;-50
2023/10/07 00:17:50;;;;;;;;;;;;;;;19.55;56.83;101972.09;5032425;28;19913;-47
2023/10/07 00:20:20;;;;;;;;;;;;;;;19.54;56.67;101965.84;5041470;28;20267;-48
2023/10/07 00:22:49;;;;;;;;;;;;;;;19.55;56.64;101969.41;5035584;28;19909;-48
2023/10/07 00:25:19;;;;;;;;;;;;;;;19.53;56.53;101956.03;5037255;28;19909;-46
2023/10/07 00:27:44;;;;;;;;;;;;;;;19.53;56.58;101950.66;5040049;28;19916;-45
2023/10/07 00:30:15;;;;;;;;;;;;;;;19.54;56.59;101956.88;5035293;28;20047;-46
2023/10/07 00:32:40;;;;;;;;;;;;;;;19.54;56.69;101954.19;5037302;28;19917;-46
2023/10/07 00:35:07;;;;;;;;;;;;;;;19.53;56.56;101953.34;5034430;28;20008;-46
2023/10/07 00:37:35;;;;;;;;;;;;;;;19.52;56.83;101948.94;5043295;28;19909;-47
2023/10/07 00:40:13;;;;;;;;;;;;;;;19.53;56.72;101944.41;5038367;28;19955;-45
2023/10/07 00:42:44;;;;;;;;;;;;;;;19.52;56.71;101935.47;5041849;28;19916;-46
2023/10/07 00:45:14;;;;;;;;;;;;;;;19.52;56.71;101940.84;5043426;28;19932;-47
2023/10/07 00:47:40;;;;;;;;;;;;;;;19.51;57.00;101958.06;5045663;28;19948;-47
2023/10/07 00:50:06;;;;;;;;;;;;;;;19.53;56.94;101955.19;5040043;28;19916;-45
2023/10/07 00:52:41;;;;;;;;;;;;;;;19.52;56.72;101967.00;5037240;28;19916;-45
2023/10/07 00:57:37;;;;;;;;;;;;;;;19.52;56.72;101964.28;5041103;28;19909;-48
2023/10/07 01:00:40;;;;;;;;;;;;;;;19.51;56.84;101966.13;5036949;28;19920;-44
2023/10/07 01:03:17;;;;;;;;;;;;;;;19.51;57.09;101970.69;5040579;28;19908;-46
2023/10/07 01:08:35;;;;;;;;;;;;;;;19.51;56.91;101957.19;5041621;28;19971;-47
2023/10/07 01:11:08;;;;;;;;;;;;;;;19.51;57.13;101946.41;5047981;28;19932;-45
2023/10/07 01:13:36;;;;;;;;;;;;;;;19.49;56.89;101965.41;5039010;28;19959;-45
2023/10/07 01:16:07;;;;;;;;;;;;;;;19.50;57.07;101964.44;5041918;28;19952;-47
2023/10/07 01:18:38;;;;;;;;;;;;;;;19.49;56.92;101958.19;5041261;28;19912;-47
2023/10/07 01:21:11;;;;;;;;;;;;;;;19.50;56.93;101956.34;5036728;28;19941;-46
2023/10/07 01:23:36;;;;;;;;;;;;;;;19.49;56.92;101960.88;5038501;28;20004;-45
2023/10/07 01:26:15;;;;;;;;;;;;;;;19.50;57.04;101967.16;5040501;28;19909;-47
2023/10/07 01:28:40;;;;;;;;;;;;;;;19.49;56.86;101954.63;5037712;28;19992;-46
2023/10/07 01:31:18;;;;;;;;;;;;;;;19.49;56.92;101951.94;5040256;28;19913;-46
2023/10/07 01:33:47;;;;;;;;;;;;;;;19.50;57.26;101956.34;5041235;28;19972;-46
2023/10/07 01:36:19;;;;;;;;;;;;;;;19.49;57.02;101958.19;5039108;28;19948;-46
2023/10/07 01:38:44;;;;;;;;;;;;;;;19.48;56.94;101952.94;5038272;28;19916;-46
2023/10/07 01:41:20;;;;;;;;;;;;;;;19.48;57.08;101945.69;5037459;28;19913;-46
2023/10/07 01:43:56;;;;;;;;;;;;;;;19.49;57.28;101946.53;5041805;28;19909;-47
2023/10/07 01:46:22;;;;;;;;;;;;;;;19.48;56.99;101944.84;5040045;28;20392;-45
2023/10/07 01:48:55;;;;;;;;;;;;;;;19.48;57.26;101951.09;5040935;28;19916;-47
2023/10/07 01:51:21;;;;;;;;;;;;;;;19.48;57.23;101944.84;5036113;28;19912;-46
2023/10/07 01:53:47;;;;;;;;;;;;;;;19.47;57.30;101932.38;5034835;28;20299;-44
2023/10/07 01:56:15;;;;;;;;;;;;;;;19.47;57.32;101941.31;5036194;28;20172;-46
2023/10/07 01:58:41;;;;;;;;;;;;;;;19.48;57.15;101936.75;5039902;28;19956;-46
2023/10/07 02:01:06;;;;;;;;;;;;;;;19.47;57.22;101943.16;5033847;28;19909;-46
2023/10/07 02:03:32;;;;;;;;;;;;;;;19.47;57.42;101952.09;5036922;28;19909;-47
2023/10/07 02:05:58;;;;;;;;;;;;;;;19.47;57.17;101937.75;5035849;28;19920;-45
2023/10/07 02:08:23;;;;;;;;;;;;;;;19.47;57.20;101941.31;5034432;28;19909;-47
2023/10/07 02:10:49;;;;;;;;;;;;;;;19.46;57.11;101926.13;5035431;28;20252;-47
2023/10/07 02:13:19;;;;;;;;;;;;;;;19.47;57.41;101937.75;5035583;28;19913;-45
2023/10/07 02:15:44;;;;;;;;;;;;;;;19.46;57.22;101933.38;5040417;28;19909;-46
2023/10/07 02:18:15;;;;;;;;;;;;;;;19.46;57.38;101936.91;5037534;28;19916;-45
2023/10/07 02:20:43;;;;;;;;;;;;;;;19.46;57.23;101936.91;5032680;28;19920;-47
2023/10/07 02:23:12;;;;;;;;;;;;;;;19.45;57.35;101935.22;5035834;28;19920;-48
2023/10/07 02:25:40;;;;;;;;;;;;;;;19.46;57.57;101938.75;5038146;28;19944;-45
2023/10/07 02:28:06;;;;;;;;;;;;;;;19.45;57.28;101937.03;5039553;28;19909;-47
2023/10/07 02:30:38;;;;;;;;;;;;;;;19.45;57.57;101924.44;5037035;28;19915;-48
2023/10/07 02:33:07;;;;;;;;;;;;;;;19.46;57.29;101936.06;5033850;28;19917;-47
2023/10/07 02:35:33;;;;;;;;;;;;;;;19.45;57.45;101931.66;5034917;28;20281;-48
2023/10/07 02:38:02;;;;;;;;;;;;;;;19.45;57.28;101915.47;5034599;28;19913;-49
2023/10/07 02:40:48;;;;;;;;;;;;;;;19.44;57.43;101914.63;5031521;28;19955;-49
2023/10/07 02:43:15;;;;;;;;;;;;;;;19.45;57.30;101918.16;5032075;28;19913;-45
2023/10/07 02:45:42;;;;;;;;;;;;;;;19.45;57.43;101918.16;5039778;28;19913;-49
2023/10/07 02:48:10;;;;;;;;;;;;;;;19.44;57.41;101909.22;5040755;28;19909;-45
2023/10/07 02:50:41;;;;;;;;;;;;;;;19.44;57.49;101922.72;5040284;28;19916;-46
2023/10/07 02:53:12;;;;;;;;;;;;;;;19.44;57.64;101917.31;5039987;28;19931;-47
2023/10/07 02:55:47;;;;;;;;;;;;;;;19.45;57.82;101923.56;5041752;28;19909;-45
2023/10/07 02:58:13;;;;;;;;;;;;;;;19.44;57.70;101913.78;5031006;28;19976;-46
2023/10/07 03:00:39;;;;;;;;;;;;;;;19.44;57.66;101921.88;5040538;28;19909;-45
2023/10/07 03:06:07;;;;;;;;;;;;;;;19.43;57.68;101912.94;5047668;28;20109;-46
2023/10/07 03:11:40;;;;;;;;;;;;;;;19.43;57.60;101918.31;5040327;28;20399;-46
2023/10/07 03:14:05;;;;;;;;;;;;;;;19.44;57.50;101917.31;5046989;28;19956;-48
2023/10/07 03:16:42;;;;;;;;;;;;;;;19.44;57.68;101921.88;5054240;28;19963;-50
2023/10/07 03:19:07;;;;;;;;;;;;;;;19.39;57.52;101921.47;5048072;28;19915;-48
2023/10/07 03:24:03;;;;;;;;;;;;;;;19.42;57.71;101926.56;5053118;28;19936;-46
2023/10/07 03:26:32;;;;;;;;;;;;;;;19.42;57.69;101930.13;5049715;28;19919;-46
2023/10/07 03:28:58;;;;;;;;;;;;;;;19.42;57.90;101926.56;5051927;28;19936;-47
2023/10/07 03:31:47;;;;;;;;;;;;;;;19.42;57.73;101913.94;5049036;28;19964;-45
2023/10/07 03:34:13;;;;;;;;;;;;;;;19.43;57.64;101917.47;5048365;28;19913;-46
2023/10/07 03:36:41;;;;;;;;;;;;;;;19.42;57.83;101926.56;5054218;28;19919;-47
2023/10/07 03:41:55;;;;;;;;;;;;;;;19.41;57.83;101925.72;5048761;28;19910;-45
2023/10/07 03:44:21;;;;;;;;;;;;;;;19.41;57.78;101922.16;5037321;28;19984;-47
2023/10/07 03:46:47;;;;;;;;;;;;;;;19.41;57.70;101925.72;5044186;28;19909;-44
2023/10/07 03:49:13;;;;;;;;;;;;;;;19.42;57.79;101910.38;5041799;28;19915;-45
2023/10/07 03:51:40;;;;;;;;;;;;;;;19.42;57.93;101911.22;5038370;28;19913;-46
2023/10/07 03:54:15;;;;;;;;;;;;;;;19.42;57.80;101913.09;5041998;28;19940;-44
2023/10/07 03:56:40;;;;;;;;;;;;;;;19.42;58.16;101913.09;5038861;28;19967;-47
2023/10/07 03:59:06;;;;;;;;;;;;;;;19.42;57.63;101918.47;5037301;28;19909;-48
2023/10/07 04:01:32;;;;;;;;;;;;;;;19.40;57.68;101923.16;5039308;28;19916;-47
2023/10/07 04:03:59;;;;;;;;;;;;;;;19.41;57.87;101927.53;5036621;28;19909;-46
2023/10/07 04:06:30;;;;;;;;;;;;;;;19.40;57.77;101918.59;5035967;28;19913;-46
2023/10/07 04:08:58;;;;;;;;;;;;;;;19.40;57.81;101909.66;5040651;28;19944;-46
2023/10/07 04:11:26;;;;;;;;;;;;;;;19.40;57.75;101915.91;5036877;28;19980;-46
2023/10/07 04:13:53;;;;;;;;;;;;;;;19.40;57.80;101907.81;5040850;28;19924;-45
2023/10/07 04:16:24;;;;;;;;;;;;;;;19.40;57.92;101921.31;5039902;28;19916;-48
2023/10/07 04:18:50;;;;;;;;;;;;;;;19.40;57.91;101915.06;5033942;28;19976;-45
2023/10/07 04:21:15;;;;;;;;;;;;;;;19.40;58.00;101913.22;5043545;28;19905;-47
2023/10/07 04:23:44;;;;;;;;;;;;;;;19.40;57.91;101904.28;5036328;28;20326;-46
2023/10/07 04:26:10;;;;;;;;;;;;;;;19.40;57.84;101906.97;5041859;28;19945;-44
2023/10/07 04:28:36;;;;;;;;;;;;;;;19.39;58.12;101903.44;5037755;28;19920;-47
2023/10/07 04:31:09;;;;;;;;;;;;;;;19.39;57.98;101908.81;5032540;28;19909;-47
2023/10/07 04:33:40;;;;;;;;;;;;;;;19.40;57.99;101904.28;5041093;28;20008;-46
2023/10/07 04:36:10;;;;;;;;;;;;;;;19.39;58.27;101900.72;5038146;28;19916;-47
2023/10/07 04:38:55;;;;;;;;;;;;;;;19.39;58.01;101900.72;5029919;28;19919;-46
2023/10/07 04:46:42;;;;;;;;;;;;;;;19.39;57.98;101906.13;5039947;28;19944;-46
2023/10/07 04:49:14;;;;;;;;;;;;;;;19.39;58.01;101913.38;5038351;28;19909;-46
2023/10/07 04:54:07;;;;;;;;;;;;;;;19.39;57.92;101910.69;5034853;28;19924;-47
2023/10/07 04:56:33;;;;;;;;;;;;;;;19.38;58.15;101900.91;5041483;28;20318;-46
2023/10/07 04:59:00;;;;;;;;;;;;;;;19.38;58.11;101904.44;5041722;28;19934;-45
2023/10/07 05:01:31;;;;;;;;;;;;;;;19.39;58.34;101905.28;5030690;28;19909;-45
2023/10/07 05:04:04;;;;;;;;;;;;;;;19.38;58.07;101899.03;5038987;28;19912;-47
2023/10/07 05:06:29;;;;;;;;;;;;;;;19.38;58.06;101903.59;5039438;28;20271;-46
2023/10/07 05:08:55;;;;;;;;;;;;;;;19.37;58.25;101910.84;5038039;28;19909;-46
2023/10/07 05:11:20;;;;;;;;;;;;;;;19.38;58.34;101895.50;5041809;28;20007;-45
2023/10/07 05:13:46;;;;;;;;;;;;;;;19.38;58.16;101900.91;5037127;28;20332;-45
2023/10/07 05:16:12;;;;;;;;;;;;;;;19.38;58.26;101895.50;5035610;28;19909;-46
2023/10/07 05:18:38;;;;;;;;;;;;;;;19.39;58.13;101897.19;5042947;28;19991;-45
2023/10/07 05:21:04;;;;;;;;;;;;;;;19.38;58.15;101898.19;5037635;28;19909;-46
2023/10/07 05:23:29;;;;;;;;;;;;;;;19.38;58.42;101900.91;5041912;28;19913;-47
2023/10/07 05:25:54;;;;;;;;;;;;;;;19.38;58.33;101900.91;5041831;28;19969;-45
2023/10/07 05:28:20;;;;;;;;;;;;;;;19.38;58.23;101895.50;5036661;28;19920;-47
2023/10/07 05:30:52;;;;;;;;;;;;;;;19.39;58.22;101899.88;5037844;28;20398;-44
2023/10/07 05:33:17;;;;;;;;;;;;;;;19.37;58.35;101889.25;5042738;28;19920;-45
2023/10/07 05:35:43;;;;;;;;;;;;;;;19.37;58.46;101883.88;5038117;28;19955;-45
2023/10/07 05:38:09;;;;;;;;;;;;;;;19.37;58.30;101880.28;5040591;28;19908;-47
2023/10/07 05:40:38;;;;;;;;;;;;;;;19.36;58.55;101884.00;5038956;28;19942;-46
2023/10/07 05:43:06;;;;;;;;;;;;;;;19.37;58.41;101891.06;5038022;28;19913;-45
2023/10/07 05:45:33;;;;;;;;;;;;;;;19.37;58.52;101893.78;5039214;28;19916;-45
2023/10/07 05:47:58;;;;;;;;;;;;;;;19.38;58.30;101895.50;5039499;28;20043;-46
2023/10/07 05:50:23;;;;;;;;;;;;;;;19.36;58.50;101901.03;5039485;28;20451;-45
2023/10/07 05:52:49;;;;;;;;;;;;;;;19.37;58.58;101900.03;5040314;28;20460;-46
2023/10/07 05:55:15;;;;;;;;;;;;;;;19.37;58.33;101901.88;5020375;28;19936;-46
2023/10/07 05:57:40;;;;;;;;;;;;;;;19.35;58.41;101904.72;5037370;28;19921;-45
2023/10/07 06:00:09;;;;;;;;;;;;;;;19.36;58.49;101917.19;5039117;28;19910;-48
2023/10/07 06:02:35;;;;;;;;;;;;;;;19.37;58.60;101920.75;5038601;28;19909;-46
2023/10/07 06:05:00;;;;;;;;;;;;;;;19.37;58.41;101915.34;5039965;28;20316;-46
2023/10/07 06:07:25;;;;;;;;;;;;;;;19.36;58.35;101921.75;5038614;28;19909;-45
2023/10/07 06:09:51;;;;;;;;;;;;;;;19.37;58.72;101927.00;5036609;28;20012;-45
2023/10/07 06:12:18;;;;;;;;;;;;;;;19.36;58.69;101922.59;5039915;28;19913;-47
2023/10/07 06:14:43;;;;;;;;;;;;;;;19.37;58.39;101924.31;5034959;28;19913;-46
2023/10/07 06:17:11;;;;;;;;;;;;;;;19.37;58.76;101924.31;5039145;28;19909;-45
2023/10/07 06:19:36;;;;;;;;;;;;;;;19.38;58.49;101917.06;5035902;28;20079;-48
2023/10/07 06:22:11;;;;;;;;;;;;;;;19.39;58.40;101919.63;5032923;28;20341;-47
2023/10/07 06:24:37;;;;;;;;;;;;;;;19.39;58.52;101925.00;5038226;28;19909;-46
2023/10/07 06:27:06;;;;;;;;;;;;;;;19.40;58.51;101931.25;5036906;28;19913;-45
2023/10/07 06:29:32;;;;;;;;;;;;;;;19.41;58.56;101923.03;5040167;28;19960;-45
2023/10/07 06:32:22;;;;;;;;;;;;;;;19.42;58.44;101910.38;5039104;28;20411;-46
2023/10/07 06:34:48;;;;;;;;;;;;;;;19.43;58.52;101904.84;5036962;28;19917;-44
2023/10/07 06:37:14;;;;;;;;;;;;;;;19.44;58.63;101911.91;5034026;28;19917;-47
2023/10/07 06:39:39;;;;;;;;;;;;;;;19.46;58.76;101909.94;5034000;28;20325;-46
2023/10/07 06:42:06;;;;;;;;;;;;;;;19.46;58.53;101917.19;5034919;28;19917;-45
2023/10/07 06:44:31;;;;;;;;;;;;;;;19.47;58.74;101922.41;5037739;28;19948;-47
2023/10/07 06:46:56;;;;;;;;;;;;;;;19.48;58.45;101929.50;5034026;28;19909;-45
2023/10/07 06:49:22;;;;;;;;;;;;;;;19.52;58.49;101929.22;5039013;28;19909;-45
2023/10/07 06:51:53;;;;;;;;;;;;;;;19.52;58.61;101921.97;5043329;28;19913;-46
2023/10/07 06:54:23;;;;;;;;;;;;;;;19.54;58.68;101936.19;5035517;28;19917;-45
2023/10/07 06:56:51;;;;;;;;;;;;;;;19.19;58.47;101881.06;5044840;28;19909;-49
2023/10/07 06:59:16;;;;;;;;;;;;;;;19.57;58.34;101932.31;5036444;28;20402;-46
2023/10/07 07:04:10;;;;;;;;;;;;;;;19.59;58.45;101939.28;5040889;28;19909;-46
2023/10/07 07:06:46;;;;;;;;;;;;;;;19.61;58.43;101942.69;5038023;28;19972;-47
2023/10/07 07:11:59;;;;;;;;;;;;;;;19.63;58.34;101948.81;5062348;28;19932;-45
2023/10/07 07:14:28;;;;;;;;;;;;;;;19.65;58.36;101957.59;5041669;28;19977;-47
2023/10/07 07:22:34;;;;;;;;;;;;;;;19.71;58.15;101934.59;5044024;28;19916;-47
2023/10/07 07:25:04;;;;;;;;;;;;;;;19.72;58.16;101926.31;5037482;28;19913;-45
2023/10/07 07:27:33;;;;;;;;;;;;;;;19.74;58.42;101926.16;5040575;28;19967;-46
2023/10/07 07:30:01;;;;;;;;;;;;;;;19.77;58.38;101930.44;5044314;28;19961;-45
2023/10/07 07:32:28;;;;;;;;;;;;;;;19.78;58.05;101922.16;5041564;28;19955;-47
2023/10/07 07:34:56;;;;;;;;;;;;;;;19.80;58.35;101919.34;5040917;28;19917;-46
2023/10/07 07:37:22;;;;;;;;;;;;;;;19.82;58.35;101923.56;5043526;28;19928;-46
2023/10/07 07:39:48;;;;;;;;;;;;;;;19.84;58.33;101926.16;5038057;28;20276;-46
2023/10/07 07:42:22;;;;;;;;;;;;;;;19.85;58.01;101942.19;5042808;28;19983;-46
2023/10/07 07:44:57;;;;;;;;;;;;;;;19.88;58.28;101944.59;5042956;28;19909;-46
2023/10/07 07:47:22;;;;;;;;;;;;;;;19.90;58.17;101947.13;5041206;28;20380;-44
2023/10/07 07:49:48;;;;;;;;;;;;;;;19.91;58.13;101946.97;5040701;28;19920;-46
2023/10/07 07:52:15;;;;;;;;;;;;;;;19.93;57.92;101947.69;5041769;28;20411;-46
2023/10/07 07:54:41;;;;;;;;;;;;;;;19.96;57.96;101938.41;5037361;28;19972;-45
2023/10/07 07:57:08;;;;;;;;;;;;;;;19.98;57.65;101942.66;5039849;28;19917;-47
2023/10/07 07:59:33;;;;;;;;;;;;;;;20.00;57.96;101942.50;5038243;28;19917;-45
2023/10/07 08:02:17;;;;;;;;;;;;;;;20.03;57.89;101944.06;5041506;28;20217;-45
2023/10/07 08:04:49;;;;;;;;;;;;;;;20.05;57.65;101932.13;5041236;28;19909;-47
2023/10/07 08:07:24;;;;;;;;;;;;;;;20.07;57.90;101926.56;5037817;28;19913;-45
2023/10/07 08:09:51;;;;;;;;;;;;;;;20.09;57.81;101930.81;5043302;28;19917;-44
2023/10/07 08:12:28;;;;;;;;;;;;;;;20.12;57.61;101937.75;5039235;28;19913;-46
2023/10/07 08:14:54;;;;;;;;;;;;;;;20.15;57.37;101934.75;5041738;28;19923;-46
2023/10/07 08:17:19;;;;;;;;;;;;;;;20.17;57.61;101943.53;5041824;28;19972;-47
2023/10/07 08:19:49;;;;;;;;;;;;;;;20.19;57.24;101941.56;5038530;28;19909;-45
2023/10/07 08:22:18;;;;;;;;;;;;;;;20.21;57.61;101943.09;5041143;28;19909;-47
2023/10/07 08:24:44;;;;;;;;;;;;;;;20.24;57.28;101925.75;5038841;28;19913;-48
2023/10/07 08:27:43;;;;;;;;;;;;;;;20.26;57.24;101922.88;5038798;28;19971;-46
2023/10/07 08:29:55;;;;;;;;;;;;;;;20.26;57.31;101912.91;5042172;28;19924;-46
2023/10/07 08:32:35;;;;;;;;;;;;;;;20.28;57.33;101916.34;5039764;28;19909;-45
2023/10/07 08:35:00;;;;;;;;;;;;;;;20.31;57.27;101921.44;5039763;28;19924;-48
2023/10/07 08:37:32;;;;;;;;;;;;;;;20.31;57.25;101921.44;5038229;28;19908;-45
2023/10/07 08:40:07;;;;;;;;;;;;;;;20.33;57.27;101932.91;5040586;28;19972;-46
2023/10/07 08:42:32;;;;;;;;;;;;;;;20.37;56.97;101933.47;5042252;28;19941;-48
2023/10/07 08:44:59;;;;;;;;;;;;;;;20.38;57.25;101936.00;5035873;28;20368;-49
2023/10/07 08:47:25;;;;;;;;;;;;;;;20.41;57.09;101935.72;5033035;28;19951;-47
2023/10/07 08:49:52;;;;;;;;;;;;;;;20.43;56.86;101938.25;5039015;28;19917;-47
2023/10/07 08:52:19;;;;;;;;;;;;;;;20.46;57.06;101932.53;5035282;28;19919;-44
2023/10/07 08:54:44;;;;;;;;;;;;;;;20.49;56.85;101947.63;5033192;28;19980;-47
2023/10/07 08:57:15;;;;;;;;;;;;;;;20.50;57.00;101943.94;5036600;28;19914;-47
2023/10/07 08:59:42;;;;;;;;;;;;;;;20.52;56.93;101947.31;5037750;28;19908;-44
2023/10/07 09:02:12;;;;;;;;;;;;;;;20.55;56.79;101949.72;5035725;28;19909;-46
2023/10/07 09:04:38;;;;;;;;;;;;;;;20.57;56.77;101947.72;5035181;28;19909;-46
2023/10/07 09:07:08;;;;;;;;;;;;;;;20.58;56.80;101947.56;5036187;28;19913;-46
2023/10/07 09:09:38;;;;;;;;;;;;;;;20.61;56.80;101946.41;5040611;28;19917;-46
2023/10/07 09:12:10;;;;;;;;;;;;;;;20.61;56.37;101947.25;5036521;28;19916;-45
2023/10/07 09:14:40;;;;;;;;;;;;;;;20.63;56.53;101945.22;5032960;28;19917;-48
2023/10/07 09:17:09;;;;;;;;;;;;;;;20.63;56.96;101953.34;5035253;28;19909;-47
2023/10/07 09:19:34;;;;;;;;;;;;;;;20.65;56.80;101975.66;5043048;28;19976;-45
2023/10/07 09:22:10;;;;;;;;;;;;;;;20.65;57.01;101956.75;5034962;28;19946;-48
2023/10/07 09:24:38;;;;;;;;;;;;;;;20.66;56.72;101968.41;5040712;28;19908;-45
2023/10/07 09:27:10;;;;;;;;;;;;;;;20.66;56.88;101966.53;5040672;28;20306;-45
2023/10/07 09:29:36;;;;;;;;;;;;;;;20.68;56.78;101980.75;5033430;28;19909;-47
2023/10/07 09:32:04;;;;;;;;;;;;;;;20.69;57.09;101981.63;5039147;28;19916;-45
2023/10/07 09:34:32;;;;;;;;;;;;;;;20.70;56.96;101984.16;5073412;28;19987;-45
2023/10/07 09:36:57;;;;;;;;;;;;;;;20.73;56.95;101983.00;5037427;28;19937;-45
2023/10/07 09:39:34;;;;;;;;;;;;;;;20.75;56.90;101969.31;5039961;28;20161;-45
2023/10/07 09:42:25;;;;;;;;;;;;;;;20.76;56.98;101963.75;5036088;28;20016;-47
2023/10/07 09:44:53;;;;;;;;;;;;;;;20.78;57.22;101952.81;5038412;28;19996;-48
2023/10/07 09:47:21;;;;;;;;;;;;;;;20.79;56.92;101976.13;5042502;28;19997;-45
2023/10/07 09:49:47;;;;;;;;;;;;;;;20.80;57.30;101962.44;5035428;28;19995;-45
2023/10/07 09:52:16;;;;;;;;;;;;;;;20.81;57.29;101964.13;5039814;28;19909;-45
2023/10/07 09:55:06;;;;;;;;;;;;;;;20.83;57.31;101964.84;5037891;28;19984;-46
2023/10/07 09:57:43;;;;;;;;;;;;;;;20.85;57.34;101952.00;5035167;28;19974;-47
2023/10/07 10:03:12;;;;;;;;;;;;;;;20.88;57.42;101956.25;5041072;28;19909;-46
2023/10/07 10:05:56;;;;;;;;;;;;;;;20.89;57.36;101947.13;5040742;28;19909;-45
2023/10/07 10:08:44;;;;;;;;;;;;;;;20.90;57.25;101960.53;5040705;28;19984;-46
2023/10/07 10:11:30;;;;;;;;;;;;;;;20.91;57.41;101946.00;5035398;28;19952;-44
2023/10/07 10:14:10;;;;;;;;;;;;;;;20.92;57.29;101958.50;5039214;28;19929;-48
2023/10/07 10:16:44;;;;;;;;;;;;;;;20.94;57.28;101953.78;5037166;28;19923;-46
2023/10/07 10:19:21;;;;;;;;;;;;;;;20.95;57.38;101965.44;5042017;28;19941;-45
2023/10/07 10:21:47;;;;;;;;;;;;;;;20.95;57.15;101950.06;5040006;28;19933;-46
2023/10/07 10:24:18;;;;;;;;;;;;;;;20.95;57.23;101960.91;5043272;28;19913;-47
2023/10/07 10:26:44;;;;;;;;;;;;;;;20.97;57.15;101976.94;5044832;28;19916;-47
2023/10/07 10:29:16;;;;;;;;;;;;;;;20.97;57.34;101969.69;5040255;28;19909;-46
2023/10/07 10:31:48;;;;;;;;;;;;;;;20.99;57.16;101969.53;5041980;28;19976;-47
2023/10/07 10:34:14;;;;;;;;;;;;;;;21.01;57.23;101974.78;5044824;28;19920;-47
2023/10/07 10:36:43;;;;;;;;;;;;;;;21.01;57.06;101972.94;5043469;28;19919;-45
2023/10/07 10:39:25;;;;;;;;;;;;;;;21.03;56.98;101983.59;5044236;28;19956;-46
2023/10/07 10:41:54;;;;;;;;;;;;;;;21.04;57.11;101975.31;5041172;28;19940;-46
2023/10/07 10:44:20;;;;;;;;;;;;;;;21.05;57.27;101974.31;5038432;28;19966;-46
2023/10/07 10:46:46;;;;;;;;;;;;;;;21.05;57.12;101985.13;5042212;28;19968;-47
2023/10/07 10:49:18;;;;;;;;;;;;;;;21.06;56.89;101977.84;5042094;28;19909;-45
2023/10/07 10:51:48;;;;;;;;;;;;;;;21.07;56.83;101979.56;5036784;28;19909;-45
2023/10/07 10:54:19;;;;;;;;;;;;;;;21.06;56.87;101978.72;5040742;28;20258;-45
2023/10/07 10:56:47;;;;;;;;;;;;;;;21.08;56.86;101982.13;5044941;28;20293;-44
2023/10/07 10:59:14;;;;;;;;;;;;;;;21.09;57.01;101974.84;5038763;28;19909;-46
2023/10/07 11:01:39;;;;;;;;;;;;;;;21.10;56.83;101981.94;5039071;28;19943;-47
2023/10/07 11:04:06;;;;;;;;;;;;;;;21.09;57.04;101981.09;5035244;28;19913;-47
2023/10/07 11:06:32;;;;;;;;;;;;;;;21.10;57.00;101982.78;5042953;28;19913;-46
2023/10/07 11:08:57;;;;;;;;;;;;;;;21.11;57.08;101980.94;5039384;28;20025;-47
2023/10/07 11:11:26;;;;;;;;;;;;;;;21.11;57.13;101975.53;5036706;28;19909;-47
2023/10/07 11:13:53;;;;;;;;;;;;;;;21.10;57.06;101980.09;5035386;28;19921;-45
2023/10/07 11:16:19;;;;;;;;;;;;;;;21.11;56.89;101984.53;5034109;28;20437;-44
2023/10/07 11:18:46;;;;;;;;;;;;;;;21.12;57.03;101977.25;5029309;28;19913;-47
2023/10/07 11:21:12;;;;;;;;;;;;;;;21.11;56.89;101976.41;5039277;28;19923;-45
2023/10/07 11:23:46;;;;;;;;;;;;;;;21.13;57.11;101973.53;5035704;28;19913;-44
2023/10/07 11:26:12;;;;;;;;;;;;;;;21.12;56.93;101985.38;5037104;28;19920;-45
2023/10/07 11:28:38;;;;;;;;;;;;;;;21.12;57.07;101971.84;5036161;28;19909;-45
2023/10/07 11:31:05;;;;;;;;;;;;;;;21.12;57.05;101983.50;5038115;28;20343;-45
2023/10/07 11:33:32;;;;;;;;;;;;;;;21.13;57.24;101976.22;5038118;28;19948;-47
2023/10/07 11:35:59;;;;;;;;;;;;;;;21.13;57.23;101977.09;5043414;28;19940;-46
2023/10/07 11:38:25;;;;;;;;;;;;;;;21.14;56.96;101977.94;5039393;28;19932;-46
2023/10/07 11:40:50;;;;;;;;;;;;;;;21.14;56.97;101983.34;5041854;28;19924;-47
2023/10/07 11:43:16;;;;;;;;;;;;;;;21.14;57.20;101976.06;5044436;28;19909;-46
2023/10/07 11:45:43;;;;;;;;;;;;;;;21.14;57.13;101972.53;5042003;28;19971;-45
2023/10/07 11:48:08;;;;;;;;;;;;;;;21.14;57.21;101959.84;5041373;28;19952;-46
2023/10/07 11:50:37;;;;;;;;;;;;;;;21.15;57.09;101960.69;5042642;28;19947;-45
2023/10/07 11:53:02;;;;;;;;;;;;;;;21.14;57.39;101978.78;5038988;28;19909;-45
2023/10/07 11:55:27;;;;;;;;;;;;;;;21.13;57.55;101993.31;5040370;28;19908;-44
2023/10/07 11:57:53;;;;;;;;;;;;;;;21.14;57.20;101983.34;5043522;28;19913;-45
2023/10/07 12:00:28;;;;;;;;;;;;;;;21.14;57.36;101978.78;5039461;28;19913;-45
2023/10/07 12:03:00;;;;;;;;;;;;;;;21.14;57.34;101994.16;5043373;28;19909;-47
2023/10/07 12:05:28;;;;;;;;;;;;;;;21.14;56.89;102005.81;5041873;28;19909;-46
2023/10/07 12:07:55;;;;;;;;;;;;;;;21.15;57.09;101985.03;5036764;28;19984;-47
2023/10/07 12:10:21;;;;;;;;;;;;;;;21.15;57.24;101985.03;5041935;28;19987;-46
2023/10/07 12:12:49;;;;;;;;;;;;;;;21.14;57.21;101967.94;5041191;28;20284;-44
2023/10/07 12:15:17;;;;;;;;;;;;;;;21.15;57.19;101969.69;5038721;28;19962;-45
2023/10/07 12:17:43;;;;;;;;;;;;;;;21.15;56.76;101966.97;5040980;28;19913;-47
2023/10/07 12:20:12;;;;;;;;;;;;;;;21.15;56.89;101961.56;5039795;28;19909;-45
2023/10/07 12:22:38;;;;;;;;;;;;;;;21.16;56.98;101960.53;5039677;28;19915;-47
2023/10/07 12:25:04;;;;;;;;;;;;;;;21.16;57.02;101962.41;5040979;28;19909;-46
2023/10/07 12:27:29;;;;;;;;;;;;;;;21.17;57.11;101950.56;5040070;28;20028;-49
2023/10/07 12:29:55;;;;;;;;;;;;;;;21.18;57.00;101958.53;5039509;28;19909;-49
2023/10/07 12:32:20;;;;;;;;;;;;;;;21.18;57.04;101946.84;5041801;28;20060;-45
2023/10/07 12:34:47;;;;;;;;;;;;;;;21.20;56.99;101948.41;5039064;28;19913;-47
2023/10/07 12:37:13;;;;;;;;;;;;;;;21.19;56.74;101954.81;5043601;28;19919;-45
2023/10/07 12:39:39;;;;;;;;;;;;;;;21.19;56.96;101949.38;5040222;28;19991;-45
2023/10/07 12:42:04;;;;;;;;;;;;;;;21.20;56.84;101945.69;5038912;28;19909;-49
2023/10/07 12:44:29;;;;;;;;;;;;;;;21.20;56.93;101932.19;5040994;28;19917;-47
2023/10/07 12:46:55;;;;;;;;;;;;;;;21.20;56.90;101929.47;5037203;28;19976;-47
2023/10/07 12:49:22;;;;;;;;;;;;;;;21.20;56.77;101915.94;5042783;28;19913;-46
2023/10/07 12:51:47;;;;;;;;;;;;;;;21.19;56.74;101911.53;5037427;28;19913;-46
2023/10/07 12:54:12;;;;;;;;;;;;;;;21.19;56.91;101916.94;5036860;28;19917;-45
2023/10/07 12:56:38;;;;;;;;;;;;;;;21.20;56.85;101928.63;5041626;28;19909;-45
2023/10/07 12:59:07;;;;;;;;;;;;;;;21.18;56.87;101904.44;5038350;28;19913;-48
2023/10/07 13:01:33;;;;;;;;;;;;;;;21.19;56.80;101929.63;5038879;28;19951;-46
2023/10/07 13:03:58;;;;;;;;;;;;;;;21.19;57.06;101929.63;5035284;28;19913;-46
2023/10/07 13:06:23;;;;;;;;;;;;;;;21.19;57.19;101929.63;5033876;28;19932;-47
2023/10/07 13:08:49;;;;;;;;;;;;;;;21.19;57.16;101935.88;5032272;28;20128;-47
2023/10/07 13:11:14;;;;;;;;;;;;;;;21.19;57.05;101943.97;5039055;28;19908;-49
2023/10/07 13:13:40;;;;;;;;;;;;;;;21.19;56.71;101943.13;5036057;28;19924;-44
2023/10/07 13:16:10;;;;;;;;;;;;;;;21.19;56.85;101935.03;5042832;28;19917;-47
2023/10/07 13:18:36;;;;;;;;;;;;;;;21.19;56.62;101948.53;5040088;28;19937;-46
2023/10/07 13:21:07;;;;;;;;;;;;;;;21.19;56.61;101938.56;5039845;28;19920;-46